sensor_id;sensor_type;location;lat;lon;timestamp;temperature;humidity
20750;DHT22;10535;50.664;4.564;2022-09-09T00:04:37;15.30;99.90
20750;DHT22;10535;50.664;4.564;2022-09-09T00:13:13;15.40;99.90
20750;DHT22;10535;50.664;4.564;2022-09-09T00:16:08;15.30;99.90
20750;DHT22;10535;50.664;4.564;2022-09-09T00:18:59;15.40;99.90
20750;DHT22;10535;50.664;4.564;2022-09-09T00:23:58;15.60;99.90
20750;DHT22;10535;50.664;4.564;2022-09-09T00:26:47;15.50;99.90
20750;DHT22;10535;50.664;4.564;2022-09-09T00:29:39;15.40;99.90
20750;DHT22;10535;50.664;4.564;2022-09-09T00:32:17;15.40;99.90
20750;DHT22;10535;50.664;4.564;2022-09-09T00:34:54;15.50;99.90
20750;DHT22;10535;50.664;4.564;2022-09-09T00:37:22;15.50;99.90
20750;DHT22;10535;50.664;4.564;2022-09-09T00:39:53;15.50;99.90
20750;DHT22;10535;50.664;4.564;2022-09-09T00:42:46;15.50;99.90
20750;DHT22;10535;50.664;4.564;2022-09-09T00:47:52;15.40;99.90
20750;DHT22;10535;50.664;4.564;2022-09-09T00:53:15;15.30;99.90
20750;DHT22;10535;50.664;4.564;2022-09-09T00:56:16;15.40;99.90
20750;DHT22;10535;50.664;4.564;2022-09-09T00:59:07;15.40;99.90
20750;DHT22;10535;50.664;4.564;2022-09-09T01:01:37;15.40;99.90
20750;DHT22;10535;50.664;4.564;2022-09-09T01:04:10;15.40;99.90
20750;DHT22;10535;50.664;4.564;2022-09-09T01:06:37;15.40;99.90
20750;DHT22;10535;50.664;4.564;2022-09-09T01:09:38;15.50;99.90
20750;DHT22;10535;50.664;4.564;2022-09-09T01:12:17;15.40;99.90
20750;DHT22;10535;50.664;4.564;2022-09-09T01:14:52;15.40;99.90
20750;DHT22;10535;50.664;4.564;2022-09-09T01:17:44;15.40;99.90
20750;DHT22;10535;50.664;4.564;2022-09-09T01:28:26;15.30;99.90
20750;DHT22;10535;50.664;4.564;2022-09-09T01:30:55;15.70;99.90
20750;DHT22;10535;50.664;4.564;2022-09-09T01:33:21;15.70;99.90
20750;DHT22;10535;50.664;4.564;2022-09-09T01:38:29;15.70;99.90
20750;DHT22;10535;50.664;4.564;2022-09-09T01:40:56;15.70;99.90
20750;DHT22;10535;50.664;4.564;2022-09-09T01:43:24;15.70;99.90
20750;DHT22;10535;50.664;4.564;2022-09-09T01:45:53;15.80;99.90
20750;DHT22;10535;50.664;4.564;2022-09-09T01:48:21;15.70;99.90
20750;DHT22;10535;50.664;4.564;2022-09-09T01:50:48;15.70;99.90
20750;DHT22;10535;50.664;4.564;2022-09-09T01:53:14;15.70;99.90
20750;DHT22;10535;50.664;4.564;2022-09-09T01:58:37;15.80;99.90
20750;DHT22;10535;50.664;4.564;2022-09-09T02:01:17;16.00;99.90
20750;DHT22;10535;50.664;4.564;2022-09-09T02:03:52;15.80;99.90
20750;DHT22;10535;50.664;4.564;2022-09-09T02:06:34;15.80;99.90
20750;DHT22;10535;50.664;4.564;2022-09-09T02:09:04;15.60;99.90
20750;DHT22;10535;50.664;4.564;2022-09-09T02:11:30;15.60;99.90
20750;DHT22;10535;50.664;4.564;2022-09-09T02:14:10;15.70;99.90
20750;DHT22;10535;50.664;4.564;2022-09-09T02:17:05;15.50;99.90
20750;DHT22;10535;50.664;4.564;2022-09-09T02:19:32;15.50;99.90
20750;DHT22;10535;50.664;4.564;2022-09-09T02:22:00;15.50;99.90
20750;DHT22;10535;50.664;4.564;2022-09-09T02:24:28;15.50;99.90
20750;DHT22;10535;50.664;4.564;2022-09-09T02:26:56;15.60;99.90
20750;DHT22;10535;50.664;4.564;2022-09-09T02:29:39;15.50;99.90
20750;DHT22;10535;50.664;4.564;2022-09-09T02:32:10;15.50;99.90
20750;DHT22;10535;50.664;4.564;2022-09-09T02:34:42;15.60;99.90
20750;DHT22;10535;50.664;4.564;2022-09-09T02:37:12;15.50;99.90
20750;DHT22;10535;50.664;4.564;2022-09-09T02:39:38;15.50;99.90
20750;DHT22;10535;50.664;4.564;2022-09-09T02:42:04;15.50;99.90
20750;DHT22;10535;50.664;4.564;2022-09-09T02:44:30;15.40;99.90
20750;DHT22;10535;50.664;4.564;2022-09-09T02:50:11;15.30;99.90
20750;DHT22;10535;50.664;4.564;2022-09-09T02:53:13;15.40;99.90
20750;DHT22;10535;50.664;4.564;2022-09-09T02:55:47;15.40;99.90
20750;DHT22;10535;50.664;4.564;2022-09-09T02:58:20;15.50;99.90
20750;DHT22;10535;50.664;4.564;2022-09-09T03:00:50;15.50;99.90
20750;DHT22;10535;50.664;4.564;2022-09-09T03:03:17;15.50;99.90
20750;DHT22;10535;50.664;4.564;2022-09-09T03:05:45;15.60;99.90
20750;DHT22;10535;50.664;4.564;2022-09-09T03:08:15;15.50;99.90
20750;DHT22;10535;50.664;4.564;2022-09-09T03:10:40;15.40;99.90
20750;DHT22;10535;50.664;4.564;2022-09-09T03:13:06;15.40;99.90
20750;DHT22;10535;50.664;4.564;2022-09-09T03:15:32;15.30;99.90
20750;DHT22;10535;50.664;4.564;2022-09-09T03:17:58;15.30;99.90
20750;DHT22;10535;50.664;4.564;2022-09-09T03:20:27;15.30;99.90
20750;DHT22;10535;50.664;4.564;2022-09-09T03:22:57;15.20;99.90
20750;DHT22;10535;50.664;4.564;2022-09-09T03:25:24;15.30;99.90
20750;DHT22;10535;50.664;4.564;2022-09-09T03:27:50;15.40;99.90
20750;DHT22;10535;50.664;4.564;2022-09-09T03:30:22;15.40;99.90
20750;DHT22;10535;50.664;4.564;2022-09-09T03:32:49;15.40;99.90
20750;DHT22;10535;50.664;4.564;2022-09-09T03:35:21;15.30;99.90
20750;DHT22;10535;50.664;4.564;2022-09-09T03:37:47;15.40;99.90
20750;DHT22;10535;50.664;4.564;2022-09-09T03:40:16;15.40;99.90
20750;DHT22;10535;50.664;4.564;2022-09-09T03:42:45;15.30;99.90
20750;DHT22;10535;50.664;4.564;2022-09-09T03:45:11;15.30;99.90
20750;DHT22;10535;50.664;4.564;2022-09-09T03:47:37;15.30;99.90
20750;DHT22;10535;50.664;4.564;2022-09-09T03:50:05;15.40;99.90
20750;DHT22;10535;50.664;4.564;2022-09-09T03:52:37;15.40;99.90
20750;DHT22;10535;50.664;4.564;2022-09-09T03:55:13;15.40;99.90
20750;DHT22;10535;50.664;4.564;2022-09-09T03:57:41;15.30;99.90
20750;DHT22;10535;50.664;4.564;2022-09-09T04:00:07;15.40;99.90
20750;DHT22;10535;50.664;4.564;2022-09-09T04:02:33;15.40;99.90
20750;DHT22;10535;50.664;4.564;2022-09-09T04:05:00;15.30;99.90
20750;DHT22;10535;50.664;4.564;2022-09-09T04:07:26;15.30;99.90
20750;DHT22;10535;50.664;4.564;2022-09-09T04:09:53;15.40;99.90
20750;DHT22;10535;50.664;4.564;2022-09-09T04:12:20;15.40;99.90
20750;DHT22;10535;50.664;4.564;2022-09-09T04:14:46;15.50;99.90
20750;DHT22;10535;50.664;4.564;2022-09-09T04:17:12;15.60;99.90
20750;DHT22;10535;50.664;4.564;2022-09-09T04:19:37;15.70;99.90
20750;DHT22;10535;50.664;4.564;2022-09-09T04:22:07;15.70;99.90
20750;DHT22;10535;50.664;4.564;2022-09-09T04:24:38;15.70;99.90
20750;DHT22;10535;50.664;4.564;2022-09-09T04:27:05;15.70;99.90
20750;DHT22;10535;50.664;4.564;2022-09-09T04:29:34;15.60;99.90
20750;DHT22;10535;50.664;4.564;2022-09-09T04:32:00;15.50;99.90
20750;DHT22;10535;50.664;4.564;2022-09-09T04:34:26;15.40;99.90
20750;DHT22;10535;50.664;4.564;2022-09-09T04:36:54;15.40;99.90
20750;DHT22;10535;50.664;4.564;2022-09-09T04:39:21;15.50;99.90
20750;DHT22;10535;50.664;4.564;2022-09-09T04:41:47;15.40;99.90
20750;DHT22;10535;50.664;4.564;2022-09-09T04:44:12;15.40;99.90
20750;DHT22;10535;50.664;4.564;2022-09-09T04:46:38;15.30;99.90
20750;DHT22;10535;50.664;4.564;2022-09-09T04:49:03;15.30;99.90
20750;DHT22;10535;50.664;4.564;2022-09-09T04:51:35;15.30;99.90
20750;DHT22;10535;50.664;4.564;2022-09-09T04:54:01;15.40;99.90
20750;DHT22;10535;50.664;4.564;2022-09-09T04:56:38;15.40;99.90
20750;DHT22;10535;50.664;4.564;2022-09-09T04:59:03;15.60;99.90
20750;DHT22;10535;50.664;4.564;2022-09-09T05:01:29;15.50;99.90
20750;DHT22;10535;50.664;4.564;2022-09-09T05:03:55;15.60;99.90
20750;DHT22;10535;50.664;4.564;2022-09-09T05:06:22;15.70;99.90
20750;DHT22;10535;50.664;4.564;2022-09-09T05:08:48;15.70;99.90
20750;DHT22;10535;50.664;4.564;2022-09-09T05:11:18;15.70;99.90
20750;DHT22;10535;50.664;4.564;2022-09-09T05:13:46;15.80;99.90
20750;DHT22;10535;50.664;4.564;2022-09-09T05:16:13;15.80;99.90
20750;DHT22;10535;50.664;4.564;2022-09-09T05:18:40;15.70;99.90
20750;DHT22;10535;50.664;4.564;2022-09-09T05:21:08;15.80;99.90
20750;DHT22;10535;50.664;4.564;2022-09-09T05:23:36;15.80;99.90
20750;DHT22;10535;50.664;4.564;2022-09-09T05:26:02;15.90;99.90
20750;DHT22;10535;50.664;4.564;2022-09-09T05:28:29;15.90;99.90
20750;DHT22;10535;50.664;4.564;2022-09-09T05:30:57;16.00;99.90
20750;DHT22;10535;50.664;4.564;2022-09-09T05:33:37;16.00;99.90
20750;DHT22;10535;50.664;4.564;2022-09-09T05:36:17;16.00;99.90
20750;DHT22;10535;50.664;4.564;2022-09-09T05:38:44;15.90;99.90
20750;DHT22;10535;50.664;4.564;2022-09-09T05:41:13;15.90;99.90
20750;DHT22;10535;50.664;4.564;2022-09-09T05:43:43;15.90;99.90
20750;DHT22;10535;50.664;4.564;2022-09-09T05:46:15;15.90;99.90
20750;DHT22;10535;50.664;4.564;2022-09-09T05:48:43;16.00;99.90
20750;DHT22;10535;50.664;4.564;2022-09-09T05:51:11;16.10;99.90
20750;DHT22;10535;50.664;4.564;2022-09-09T05:53:44;16.10;99.90
20750;DHT22;10535;50.664;4.564;2022-09-09T05:56:15;16.10;99.90
20750;DHT22;10535;50.664;4.564;2022-09-09T05:58:44;16.20;99.90
20750;DHT22;10535;50.664;4.564;2022-09-09T06:01:19;16.30;99.90
20750;DHT22;10535;50.664;4.564;2022-09-09T06:03:50;16.40;99.90
20750;DHT22;10535;50.664;4.564;2022-09-09T06:06:21;16.40;99.90
20750;DHT22;10535;50.664;4.564;2022-09-09T06:09:06;16.30;99.90
20750;DHT22;10535;50.664;4.564;2022-09-09T06:11:38;16.40;99.90
20750;DHT22;10535;50.664;4.564;2022-09-09T06:14:08;16.50;99.90
20750;DHT22;10535;50.664;4.564;2022-09-09T06:16:34;16.60;99.90
20750;DHT22;10535;50.664;4.564;2022-09-09T06:19:01;16.60;99.90
20750;DHT22;10535;50.664;4.564;2022-09-09T06:21:32;16.70;99.90
20750;DHT22;10535;50.664;4.564;2022-09-09T06:24:10;16.70;99.90
20750;DHT22;10535;50.664;4.564;2022-09-09T06:26:43;16.70;99.90
20750;DHT22;10535;50.664;4.564;2022-09-09T06:29:11;16.80;99.90
20750;DHT22;10535;50.664;4.564;2022-09-09T06:31:37;17.00;99.90
20750;DHT22;10535;50.664;4.564;2022-09-09T06:34:07;17.00;99.90
20750;DHT22;10535;50.664;4.564;2022-09-09T06:36:36;17.00;99.90
20750;DHT22;10535;50.664;4.564;2022-09-09T06:39:03;17.00;99.90
20750;DHT22;10535;50.664;4.564;2022-09-09T06:41:31;17.00;99.90
20750;DHT22;10535;50.664;4.564;2022-09-09T06:43:57;17.10;99.90
20750;DHT22;10535;50.664;4.564;2022-09-09T06:46:26;17.20;99.90
20750;DHT22;10535;50.664;4.564;2022-09-09T06:48:54;17.30;99.90
20750;DHT22;10535;50.664;4.564;2022-09-09T06:51:26;17.10;99.90
20750;DHT22;10535;50.664;4.564;2022-09-09T06:53:54;17.00;99.90
20750;DHT22;10535;50.664;4.564;2022-09-09T06:56:34;17.00;99.90
20750;DHT22;10535;50.664;4.564;2022-09-09T06:59:02;17.10;99.90
20750;DHT22;10535;50.664;4.564;2022-09-09T07:01:31;17.10;99.90
20750;DHT22;10535;50.664;4.564;2022-09-09T07:03:58;17.00;99.90
20750;DHT22;10535;50.664;4.564;2022-09-09T07:06:29;17.10;99.90
20750;DHT22;10535;50.664;4.564;2022-09-09T07:08:57;17.10;99.90
20750;DHT22;10535;50.664;4.564;2022-09-09T07:11:29;17.30;99.90
20750;DHT22;10535;50.664;4.564;2022-09-09T07:13:56;17.40;99.90
20750;DHT22;10535;50.664;4.564;2022-09-09T07:16:22;17.50;99.90
20750;DHT22;10535;50.664;4.564;2022-09-09T07:18:53;17.60;99.90
20750;DHT22;10535;50.664;4.564;2022-09-09T07:21:24;17.60;99.90
20750;DHT22;10535;50.664;4.564;2022-09-09T07:23:51;17.60;99.90
20750;DHT22;10535;50.664;4.564;2022-09-09T07:26:19;17.90;99.90
20750;DHT22;10535;50.664;4.564;2022-09-09T07:28:46;18.00;99.90
20750;DHT22;10535;50.664;4.564;2022-09-09T07:31:20;17.90;99.90
20750;DHT22;10535;50.664;4.564;2022-09-09T07:34:06;18.00;99.90
20750;DHT22;10535;50.664;4.564;2022-09-09T07:36:34;17.80;99.90
20750;DHT22;10535;50.664;4.564;2022-09-09T07:39:04;17.60;99.90
20750;DHT22;10535;50.664;4.564;2022-09-09T07:41:41;17.60;99.90
20750;DHT22;10535;50.664;4.564;2022-09-09T07:44:16;17.50;99.90
20750;DHT22;10535;50.664;4.564;2022-09-09T07:46:55;17.50;99.90
20750;DHT22;10535;50.664;4.564;2022-09-09T07:49:21;17.70;99.90
20750;DHT22;10535;50.664;4.564;2022-09-09T07:51:49;17.80;99.90
20750;DHT22;10535;50.664;4.564;2022-09-09T07:54:17;17.90;99.90
20750;DHT22;10535;50.664;4.564;2022-09-09T07:56:46;17.80;99.90
20750;DHT22;10535;50.664;4.564;2022-09-09T07:59:13;17.90;99.90
20750;DHT22;10535;50.664;4.564;2022-09-09T08:01:41;17.80;99.90
20750;DHT22;10535;50.664;4.564;2022-09-09T08:04:10;17.70;99.90
20750;DHT22;10535;50.664;4.564;2022-09-09T08:06:43;17.70;99.90
20750;DHT22;10535;50.664;4.564;2022-09-09T08:09:11;17.90;99.90
20750;DHT22;10535;50.664;4.564;2022-09-09T08:11:38;18.00;99.90
20750;DHT22;10535;50.664;4.564;2022-09-09T08:14:06;18.20;99.90
20750;DHT22;10535;50.664;4.564;2022-09-09T08:16:35;18.40;99.90
20750;DHT22;10535;50.664;4.564;2022-09-09T08:19:02;18.30;99.90
20750;DHT22;10535;50.664;4.564;2022-09-09T08:21:30;18.30;99.90
20750;DHT22;10535;50.664;4.564;2022-09-09T08:23:59;18.30;99.90
20750;DHT22;10535;50.664;4.564;2022-09-09T08:26:28;18.30;99.90
20750;DHT22;10535;50.664;4.564;2022-09-09T08:28:56;18.40;99.90
20750;DHT22;10535;50.664;4.564;2022-09-09T08:31:31;18.50;99.90
20750;DHT22;10535;50.664;4.564;2022-09-09T08:33:58;18.80;99.90
20750;DHT22;10535;50.664;4.564;2022-09-09T08:36:37;18.80;99.90
20750;DHT22;10535;50.664;4.564;2022-09-09T08:39:06;18.50;99.90
20750;DHT22;10535;50.664;4.564;2022-09-09T08:50:29;18.10;99.90
20750;DHT22;10535;50.664;4.564;2022-09-09T08:55:50;18.00;99.90
20750;DHT22;10535;50.664;4.564;2022-09-09T08:58:27;17.80;99.90
20750;DHT22;10535;50.664;4.564;2022-09-09T09:12:42;17.30;99.90
20750;DHT22;10535;50.664;4.564;2022-09-09T09:15:00;17.10;99.90
20750;DHT22;10535;50.664;4.564;2022-09-09T09:17:28;16.80;99.90
20750;DHT22;10535;50.664;4.564;2022-09-09T09:19:57;16.80;99.90
20750;DHT22;10535;50.664;4.564;2022-09-09T09:22:41;16.90;99.90
20750;DHT22;10535;50.664;4.564;2022-09-09T09:25:21;17.00;99.90
20750;DHT22;10535;50.664;4.564;2022-09-09T09:31:01;17.00;99.90
20750;DHT22;10535;50.664;4.564;2022-09-09T09:33:36;17.10;99.90
20750;DHT22;10535;50.664;4.564;2022-09-09T09:36:05;17.30;99.90
20750;DHT22;10535;50.664;4.564;2022-09-09T09:38:35;17.40;99.90
20750;DHT22;10535;50.664;4.564;2022-09-09T09:41:01;17.20;99.90
20750;DHT22;10535;50.664;4.564;2022-09-09T09:43:29;17.40;99.90
20750;DHT22;10535;50.664;4.564;2022-09-09T09:45:55;17.40;99.90
20750;DHT22;10535;50.664;4.564;2022-09-09T09:48:24;17.10;99.90
20750;DHT22;10535;50.664;4.564;2022-09-09T09:51:03;17.30;99.90
20750;DHT22;10535;50.664;4.564;2022-09-09T09:53:34;17.40;99.90
20750;DHT22;10535;50.664;4.564;2022-09-09T09:56:13;17.40;99.90
20750;DHT22;10535;50.664;4.564;2022-09-09T10:03:51;17.40;99.90
20750;DHT22;10535;50.664;4.564;2022-09-09T10:06:28;17.40;99.90
20750;DHT22;10535;50.664;4.564;2022-09-09T10:08:54;17.30;99.90
20750;DHT22;10535;50.664;4.564;2022-09-09T10:14:54;17.50;99.90
20750;DHT22;10535;50.664;4.564;2022-09-09T10:23:26;18.10;99.90
20750;DHT22;10535;50.664;4.564;2022-09-09T10:26:19;18.00;99.90
20750;DHT22;10535;50.664;4.564;2022-09-09T10:29:24;18.00;99.90
20750;DHT22;10535;50.664;4.564;2022-09-09T10:34:42;18.30;99.90
20750;DHT22;10535;50.664;4.564;2022-09-09T10:42:46;18.30;99.90
20750;DHT22;10535;50.664;4.564;2022-09-09T10:45:27;18.40;99.90
20750;DHT22;10535;50.664;4.564;2022-09-09T10:56:16;19.00;99.90
20750;DHT22;10535;50.664;4.564;2022-09-09T11:01:20;19.30;99.90
20750;DHT22;10535;50.664;4.564;2022-09-09T11:04:04;19.40;99.90
20750;DHT22;10535;50.664;4.564;2022-09-09T11:06:36;19.40;99.90
20750;DHT22;10535;50.664;4.564;2022-09-09T11:09:05;19.20;99.90
20750;DHT22;10535;50.664;4.564;2022-09-09T11:14:15;19.10;99.90
20750;DHT22;10535;50.664;4.564;2022-09-09T11:19:34;19.10;99.90
20750;DHT22;10535;50.664;4.564;2022-09-09T11:22:46;19.20;99.90
20750;DHT22;10535;50.664;4.564;2022-09-09T11:36:54;19.20;99.90
20750;DHT22;10535;50.664;4.564;2022-09-09T11:42:16;19.00;99.90
20750;DHT22;10535;50.664;4.564;2022-09-09T11:44:52;19.00;99.90
20750;DHT22;10535;50.664;4.564;2022-09-09T11:47:26;19.20;99.90
20750;DHT22;10535;50.664;4.564;2022-09-09T11:50:31;19.20;99.90
20750;DHT22;10535;50.664;4.564;2022-09-09T11:55:39;19.40;99.90
20750;DHT22;10535;50.664;4.564;2022-09-09T11:58:06;19.40;99.90
20750;DHT22;10535;50.664;4.564;2022-09-09T12:00:43;19.40;99.90
20750;DHT22;10535;50.664;4.564;2022-09-09T12:03:48;19.50;99.90
20750;DHT22;10535;50.664;4.564;2022-09-09T12:08:56;19.50;99.90
20750;DHT22;10535;50.664;4.564;2022-09-09T12:11:27;19.50;99.90
20750;DHT22;10535;50.664;4.564;2022-09-09T12:13:58;19.60;99.90
20750;DHT22;10535;50.664;4.564;2022-09-09T12:16:36;19.70;99.90
20750;DHT22;10535;50.664;4.564;2022-09-09T12:19:06;19.70;99.90
20750;DHT22;10535;50.664;4.564;2022-09-09T12:21:54;19.90;99.90
20750;DHT22;10535;50.664;4.564;2022-09-09T12:24:53;20.20;99.90
20750;DHT22;10535;50.664;4.564;2022-09-09T12:27:49;20.30;99.90
20750;DHT22;10535;50.664;4.564;2022-09-09T12:30:18;20.20;99.90
20750;DHT22;10535;50.664;4.564;2022-09-09T12:32:46;19.80;99.90
20750;DHT22;10535;50.664;4.564;2022-09-09T12:35:20;19.70;99.90
20750;DHT22;10535;50.664;4.564;2022-09-09T12:37:59;19.60;99.90
20750;DHT22;10535;50.664;4.564;2022-09-09T12:40:28;19.60;99.90
20750;DHT22;10535;50.664;4.564;2022-09-09T12:42:54;19.70;99.90
20750;DHT22;10535;50.664;4.564;2022-09-09T12:45:26;19.90;99.90
20750;DHT22;10535;50.664;4.564;2022-09-09T12:48:01;20.00;99.90
20750;DHT22;10535;50.664;4.564;2022-09-09T12:50:31;20.20;99.90
20750;DHT22;10535;50.664;4.564;2022-09-09T12:53:13;20.50;99.90
20750;DHT22;10535;50.664;4.564;2022-09-09T12:55:50;20.60;99.90
20750;DHT22;10535;50.664;4.564;2022-09-09T12:58:18;20.50;99.90
20750;DHT22;10535;50.664;4.564;2022-09-09T13:00:53;20.50;99.90
20750;DHT22;10535;50.664;4.564;2022-09-09T13:03:22;20.60;99.90
20750;DHT22;10535;50.664;4.564;2022-09-09T13:05:51;20.70;99.90
20750;DHT22;10535;50.664;4.564;2022-09-09T13:08:22;20.70;99.90
20750;DHT22;10535;50.664;4.564;2022-09-09T13:11:00;20.60;99.90
20750;DHT22;10535;50.664;4.564;2022-09-09T13:13:38;20.50;99.90
20750;DHT22;10535;50.664;4.564;2022-09-09T13:16:05;20.60;99.90
20750;DHT22;10535;50.664;4.564;2022-09-09T13:18:35;20.50;99.90
20750;DHT22;10535;50.664;4.564;2022-09-09T13:21:02;20.70;99.90
20750;DHT22;10535;50.664;4.564;2022-09-09T13:23:32;20.80;99.90
20750;DHT22;10535;50.664;4.564;2022-09-09T13:26:43;20.50;99.90
20750;DHT22;10535;50.664;4.564;2022-09-09T13:28:51;20.90;99.90
20750;DHT22;10535;50.664;4.564;2022-09-09T13:31:33;21.10;99.90
20750;DHT22;10535;50.664;4.564;2022-09-09T13:34:11;21.40;99.90
20750;DHT22;10535;50.664;4.564;2022-09-09T13:36:38;21.50;99.90
20750;DHT22;10535;50.664;4.564;2022-09-09T13:39:05;21.70;99.90
20750;DHT22;10535;50.664;4.564;2022-09-09T13:41:36;21.80;99.90
20750;DHT22;10535;50.664;4.564;2022-09-09T13:44:03;21.70;99.90
20750;DHT22;10535;50.664;4.564;2022-09-09T13:46:40;21.60;99.90
20750;DHT22;10535;50.664;4.564;2022-09-09T13:51:44;22.00;99.90
20750;DHT22;10535;50.664;4.564;2022-09-09T13:54:14;22.10;99.90
20750;DHT22;10535;50.664;4.564;2022-09-09T13:56:41;22.20;99.90
20750;DHT22;10535;50.664;4.564;2022-09-09T13:59:14;22.10;99.90
20750;DHT22;10535;50.664;4.564;2022-09-09T14:01:41;22.10;99.90
20750;DHT22;10535;50.664;4.564;2022-09-09T14:04:08;22.20;99.90
20750;DHT22;10535;50.664;4.564;2022-09-09T14:06:55;22.30;99.90
20750;DHT22;10535;50.664;4.564;2022-09-09T14:09:20;22.30;99.90
20750;DHT22;10535;50.664;4.564;2022-09-09T14:11:46;22.50;99.90
20750;DHT22;10535;50.664;4.564;2022-09-09T14:14:12;22.50;99.90
20750;DHT22;10535;50.664;4.564;2022-09-09T14:16:37;22.40;99.90
20750;DHT22;10535;50.664;4.564;2022-09-09T14:19:10;22.00;99.90
20750;DHT22;10535;50.664;4.564;2022-09-09T14:21:39;22.00;99.90
20750;DHT22;10535;50.664;4.564;2022-09-09T14:24:06;22.10;99.90
20750;DHT22;10535;50.664;4.564;2022-09-09T14:26:32;22.10;99.90
20750;DHT22;10535;50.664;4.564;2022-09-09T14:28:58;22.20;99.90
20750;DHT22;10535;50.664;4.564;2022-09-09T14:31:27;22.20;99.90
20750;DHT22;10535;50.664;4.564;2022-09-09T14:33:53;22.20;99.90
20750;DHT22;10535;50.664;4.564;2022-09-09T14:36:40;21.80;99.90
20750;DHT22;10535;50.664;4.564;2022-09-09T14:39:07;21.80;99.90
20750;DHT22;10535;50.664;4.564;2022-09-09T14:41:32;21.60;99.90
20750;DHT22;10535;50.664;4.564;2022-09-09T14:43:58;21.80;99.90
20750;DHT22;10535;50.664;4.564;2022-09-09T14:46:25;21.80;99.90
20750;DHT22;10535;50.664;4.564;2022-09-09T14:48:52;21.50;99.90
20750;DHT22;10535;50.664;4.564;2022-09-09T14:51:20;21.40;99.90
20750;DHT22;10535;50.664;4.564;2022-09-09T14:53:52;21.10;99.90
20750;DHT22;10535;50.664;4.564;2022-09-09T14:56:20;21.20;99.90
20750;DHT22;10535;50.664;4.564;2022-09-09T14:58:48;21.40;99.90
20750;DHT22;10535;50.664;4.564;2022-09-09T15:01:16;21.30;99.90
20750;DHT22;10535;50.664;4.564;2022-09-09T15:03:47;21.20;99.90
20750;DHT22;10535;50.664;4.564;2022-09-09T15:06:30;21.00;99.90
20750;DHT22;10535;50.664;4.564;2022-09-09T15:09:01;21.10;99.90
20750;DHT22;10535;50.664;4.564;2022-09-09T15:11:30;20.90;99.90
20750;DHT22;10535;50.664;4.564;2022-09-09T15:13:58;20.50;99.90
20750;DHT22;10535;50.664;4.564;2022-09-09T15:16:43;20.60;99.90
20750;DHT22;10535;50.664;4.564;2022-09-09T15:19:10;20.50;99.90
20750;DHT22;10535;50.664;4.564;2022-09-09T15:21:38;20.30;99.90
20750;DHT22;10535;50.664;4.564;2022-09-09T15:24:23;20.40;99.90
20750;DHT22;10535;50.664;4.564;2022-09-09T15:26:49;20.30;99.90
20750;DHT22;10535;50.664;4.564;2022-09-09T15:29:15;20.40;99.90
20750;DHT22;10535;50.664;4.564;2022-09-09T15:31:41;20.50;99.90
20750;DHT22;10535;50.664;4.564;2022-09-09T15:34:07;20.50;99.90
20750;DHT22;10535;50.664;4.564;2022-09-09T15:36:37;20.70;99.90
20750;DHT22;10535;50.664;4.564;2022-09-09T15:39:06;20.90;99.90
20750;DHT22;10535;50.664;4.564;2022-09-09T15:41:33;20.90;99.90
20750;DHT22;10535;50.664;4.564;2022-09-09T15:44:19;20.80;99.90
20750;DHT22;10535;50.664;4.564;2022-09-09T15:46:52;20.80;99.90
20750;DHT22;10535;50.664;4.564;2022-09-09T15:49:24;20.90;99.90
20750;DHT22;10535;50.664;4.564;2022-09-09T15:51:58;20.50;99.90
20750;DHT22;10535;50.664;4.564;2022-09-09T15:54:31;20.60;99.90
20750;DHT22;10535;50.664;4.564;2022-09-09T15:57:01;20.60;99.90
20750;DHT22;10535;50.664;4.564;2022-09-09T15:59:28;20.40;99.90
20750;DHT22;10535;50.664;4.564;2022-09-09T16:01:55;20.50;99.90
20750;DHT22;10535;50.664;4.564;2022-09-09T16:04:22;20.50;99.90
20750;DHT22;10535;50.664;4.564;2022-09-09T16:06:53;20.60;99.90
20750;DHT22;10535;50.664;4.564;2022-09-09T16:09:20;20.70;99.90
20750;DHT22;10535;50.664;4.564;2022-09-09T16:11:46;20.70;99.90
20750;DHT22;10535;50.664;4.564;2022-09-09T16:14:12;20.40;99.90
20750;DHT22;10535;50.664;4.564;2022-09-09T16:16:38;20.50;99.90
20750;DHT22;10535;50.664;4.564;2022-09-09T16:19:06;20.60;99.90
20750;DHT22;10535;50.664;4.564;2022-09-09T16:21:35;20.70;99.90
20750;DHT22;10535;50.664;4.564;2022-09-09T16:24:04;20.70;99.90
20750;DHT22;10535;50.664;4.564;2022-09-09T16:26:33;20.70;99.90
20750;DHT22;10535;50.664;4.564;2022-09-09T16:28:59;20.70;99.90
20750;DHT22;10535;50.664;4.564;2022-09-09T16:31:27;20.60;99.90
20750;DHT22;10535;50.664;4.564;2022-09-09T16:33:53;20.80;99.90
20750;DHT22;10535;50.664;4.564;2022-09-09T16:36:28;20.70;99.90
20750;DHT22;10535;50.664;4.564;2022-09-09T16:38:57;20.70;99.90
20750;DHT22;10535;50.664;4.564;2022-09-09T16:41:23;20.60;99.90
20750;DHT22;10535;50.664;4.564;2022-09-09T16:43:56;20.70;99.90
20750;DHT22;10535;50.664;4.564;2022-09-09T16:46:25;20.60;99.90
20750;DHT22;10535;50.664;4.564;2022-09-09T16:48:52;20.20;99.90
20750;DHT22;10535;50.664;4.564;2022-09-09T16:51:26;20.20;99.90
20750;DHT22;10535;50.664;4.564;2022-09-09T16:53:53;20.00;99.90
20750;DHT22;10535;50.664;4.564;2022-09-09T16:56:23;20.00;99.90
20750;DHT22;10535;50.664;4.564;2022-09-09T16:58:55;19.90;99.90
20750;DHT22;10535;50.664;4.564;2022-09-09T17:01:22;19.80;99.90
20750;DHT22;10535;50.664;4.564;2022-09-09T17:03:51;19.80;99.90
20750;DHT22;10535;50.664;4.564;2022-09-09T17:06:17;20.00;99.90
20750;DHT22;10535;50.664;4.564;2022-09-09T17:08:43;20.10;99.90
20750;DHT22;10535;50.664;4.564;2022-09-09T17:11:17;20.20;99.90
20750;DHT22;10535;50.664;4.564;2022-09-09T17:13:47;20.30;99.90
20750;DHT22;10535;50.664;4.564;2022-09-09T17:16:14;20.30;99.90
20750;DHT22;10535;50.664;4.564;2022-09-09T17:18:40;20.00;99.90
20750;DHT22;10535;50.664;4.564;2022-09-09T17:21:09;20.00;99.90
20750;DHT22;10535;50.664;4.564;2022-09-09T17:23:37;19.90;99.90
20750;DHT22;10535;50.664;4.564;2022-09-09T17:26:05;19.80;99.90
20750;DHT22;10535;50.664;4.564;2022-09-09T17:28:33;19.50;99.90
20750;DHT22;10535;50.664;4.564;2022-09-09T17:30:58;19.20;99.90
20750;DHT22;10535;50.664;4.564;2022-09-09T17:33:33;18.90;99.90
20750;DHT22;10535;50.664;4.564;2022-09-09T17:35:59;18.90;99.90
20750;DHT22;10535;50.664;4.564;2022-09-09T17:38:27;18.80;99.90
20750;DHT22;10535;50.664;4.564;2022-09-09T17:43:35;18.60;99.90
20750;DHT22;10535;50.664;4.564;2022-09-09T17:46:22;18.40;99.90
20750;DHT22;10535;50.664;4.564;2022-09-09T17:48:50;18.30;99.90
20750;DHT22;10535;50.664;4.564;2022-09-09T17:51:19;18.30;99.90
20750;DHT22;10535;50.664;4.564;2022-09-09T17:53:48;18.30;99.90
20750;DHT22;10535;50.664;4.564;2022-09-09T17:56:16;18.30;99.90
20750;DHT22;10535;50.664;4.564;2022-09-09T17:58:42;18.30;99.90
20750;DHT22;10535;50.664;4.564;2022-09-09T18:01:30;18.20;99.90